Time;durP1;ratioP1;P1;durP2;ratioP2;P2;SDS_P1;SDS_P2;PMS_P1;PMS_P2;Temp;Humidity;BMP_temperature;BMP_pressure;BME280_temperature;BME280_humidity;BME280_pressure;Samples;Min_cycle;Max_cycle;Signal;HPM_P1;HPM_P2
2023/07/26 00:01:41;;;;;;;3.97;2.90;;;14.60;99.90;;;;;;5003064;28;20455;-69
2023/07/26 00:04:07;;;;;;;12.43;3.20;;;14.50;99.90;;;;;;5002677;28;20546;-69
2023/07/26 00:06:34;;;;;;;4.70;2.80;;;14.40;99.90;;;;;;5003079;28;20521;-69
2023/07/26 00:09:00;;;;;;;3.10;2.50;;;14.30;99.90;;;;;;4998935;28;20930;-69
2023/07/26 00:11:27;;;;;;;3.83;2.97;;;14.30;99.90;;;;;;4989112;28;20554;-72
2023/07/26 00:13:55;;;;;;;4.60;2.97;;;14.20;99.90;;;;;;4997377;28;20430;-72
2023/07/26 00:16:22;;;;;;;8.20;3.00;;;14.20;99.90;;;;;;4992008;28;20482;-72
2023/07/26 00:18:48;;;;;;;15.03;3.07;;;14.20;99.90;;;;;;4991288;28;20446;-72
2023/07/26 00:21:15;;;;;;;10.07;2.97;;;14.10;99.90;;;;;;4997054;28;20441;-72
2023/07/26 00:23:41;;;;;;;5.30;3.00;;;14.10;99.90;;;;;;5003847;28;20469;-72
2023/07/26 00:26:08;;;;;;;6.60;2.73;;;14.00;99.90;;;;;;4987670;28;20449;-72
2023/07/26 00:28:35;;;;;;;4.70;2.83;;;14.00;99.90;;;;;;4993356;28;20452;-72
2023/07/26 00:31:03;;;;;;;5.50;3.50;;;13.90;99.90;;;;;;4985692;28;20483;-72
2023/07/26 00:33:29;;;;;;;5.87;3.70;;;13.90;99.90;;;;;;4998880;28;20430;-72
2023/07/26 00:35:56;;;;;;;5.80;2.93;;;13.80;99.90;;;;;;4990783;28;20881;-72
2023/07/26 00:38:22;;;;;;;6.30;3.57;;;13.80;99.90;;;;;;4997039;28;20464;-72
2023/07/26 00:40:49;;;;;;;5.00;3.80;;;13.80;99.90;;;;;;4991726;28;21190;-72
2023/07/26 00:43:16;;;;;;;6.07;3.20;;;13.80;99.90;;;;;;4992782;28;20464;-72
2023/07/26 00:45:43;;;;;;;10.30;3.60;;;13.80;99.90;;;;;;5001075;28;20444;-72
2023/07/26 00:48:12;;;;;;;6.40;3.10;;;13.80;99.90;;;;;;4985792;28;20918;-72
2023/07/26 00:50:40;;;;;;;7.37;3.10;;;13.80;99.90;;;;;;5001552;28;20852;-72
2023/07/26 00:53:07;;;;;;;7.50;3.53;;;13.80;99.90;;;;;;4991757;28;20481;-72
2023/07/26 00:55:36;;;;;;;6.30;3.30;;;13.80;99.90;;;;;;4996786;28;20538;-72
2023/07/26 00:58:03;;;;;;;4.83;3.33;;;13.80;99.90;;;;;;4996213;28;20929;-72
2023/07/26 01:00:29;;;;;;;5.40;3.60;;;13.70;99.90;;;;;;4993277;28;20460;-72
2023/07/26 01:02:56;;;;;;;8.30;3.47;;;13.80;99.90;;;;;;4985525;28;20456;-72
2023/07/26 01:05:28;;;;;;;3.80;3.37;;;13.70;99.90;;;;;;5003096;28;20553;-72
2023/07/26 01:08:03;;;;;;;12.03;3.93;;;13.70;99.90;;;;;;5007765;28;21198;-72
2023/07/26 01:10:35;;;;;;;6.13;3.70;;;13.70;99.90;;;;;;4998567;28;20844;-72
2023/07/26 01:13:08;;;;;;;3.93;3.50;;;13.70;99.90;;;;;;4977046;28;20520;-72
2023/07/26 01:15:38;;;;;;;8.87;3.80;;;13.60;99.90;;;;;;5005941;28;20474;-71
2023/07/26 01:18:09;;;;;;;3.30;3.00;;;13.60;99.90;;;;;;4994669;28;20516;-72
2023/07/26 01:20:37;;;;;;;3.70;3.40;;;13.60;99.90;;;;;;4997359;28;20522;-72
2023/07/26 01:23:06;;;;;;;5.10;3.57;;;13.70;99.90;;;;;;4990971;28;20425;-72
2023/07/26 01:25:32;;;;;;;4.07;3.23;;;13.70;99.90;;;;;;4993686;28;20566;-72
2023/07/26 01:27:59;;;;;;;4.70;3.50;;;13.70;99.90;;;;;;5008041;28;20425;-72
2023/07/26 01:30:29;;;;;;;6.23;3.93;;;13.70;99.90;;;;;;5010593;28;20926;-72
2023/07/26 01:32:59;;;;;;;6.43;3.70;;;13.80;99.90;;;;;;5001086;28;20456;-73
2023/07/26 01:35:26;;;;;;;4.53;3.17;;;13.70;99.90;;;;;;5001459;28;20471;-72
2023/07/26 01:37:54;;;;;;;5.00;3.40;;;13.70;99.90;;;;;;5003777;28;20477;-72
2023/07/26 01:40:23;;;;;;;7.50;3.90;;;13.70;99.90;;;;;;5004260;28;20454;-72
2023/07/26 01:42:50;;;;;;;8.53;3.90;;;13.60;99.90;;;;;;5008816;28;20528;-72
2023/07/26 01:45:17;;;;;;;5.20;3.10;;;13.60;99.90;;;;;;5013572;28;20472;-72
2023/07/26 01:47:44;;;;;;;7.30;4.47;;;13.60;99.90;;;;;;4990452;28;20455;-72
2023/07/26 01:50:11;;;;;;;6.13;4.13;;;13.50;99.90;;;;;;4984288;28;20455;-72
2023/07/26 01:52:38;;;;;;;6.43;3.97;;;13.40;99.90;;;;;;4992803;28;20455;-72
2023/07/26 01:55:05;;;;;;;8.53;4.40;;;13.30;99.90;;;;;;4981573;28;20476;-71
2023/07/26 01:57:33;;;;;;;4.17;3.80;;;13.10;99.90;;;;;;4993699;28;20941;-70
2023/07/26 02:00:00;;;;;;;7.30;4.30;;;13.10;99.90;;;;;;5007268;28;20496;-70
2023/07/26 02:02:27;;;;;;;8.00;4.30;;;13.10;99.90;;;;;;4999131;28;20459;-70
2023/07/26 02:04:53;;;;;;;6.30;3.80;;;13.00;99.90;;;;;;4990482;28;20496;-70
2023/07/26 02:07:20;;;;;;;4.80;4.50;;;13.10;99.90;;;;;;4982342;28;20435;-70
2023/07/26 02:09:47;;;;;;;6.30;4.70;;;13.00;99.90;;;;;;5007335;28;20524;-70
2023/07/26 02:12:13;;;;;;;6.07;4.60;;;13.00;99.90;;;;;;5009894;28;20459;-70
2023/07/26 02:14:41;;;;;;;7.43;4.43;;;13.00;99.90;;;;;;5001572;28;20991;-70
2023/07/26 02:17:08;;;;;;;4.87;4.37;;;12.90;99.90;;;;;;4991144;28;20459;-70
2023/07/26 02:19:35;;;;;;;4.93;4.40;;;12.90;99.90;;;;;;4992732;28;20430;-71
2023/07/26 02:22:01;;;;;;;11.23;3.80;;;12.90;99.90;;;;;;4998071;28;20549;-70
2023/07/26 02:24:28;;;;;;;6.53;3.90;;;12.90;99.90;;;;;;4996246;28;20838;-71
2023/07/26 02:26:54;;;;;;;5.13;3.77;;;12.90;99.90;;;;;;4997676;28;20869;-71
2023/07/26 02:29:21;;;;;;;4.90;3.77;;;12.90;99.90;;;;;;5002197;28;20498;-70
2023/07/26 02:31:49;;;;;;;6.00;4.43;;;12.90;99.90;;;;;;4999611;28;20450;-71
2023/07/26 02:34:16;;;;;;;7.40;4.10;;;12.80;99.90;;;;;;4984710;28;20464;-70
2023/07/26 02:36:42;;;;;;;5.87;3.60;;;12.80;99.90;;;;;;5008455;28;20466;-70
2023/07/26 02:39:09;;;;;;;4.53;3.93;;;12.70;99.90;;;;;;5007004;28;20504;-70
2023/07/26 02:41:35;;;;;;;8.30;4.07;;;12.70;99.90;;;;;;4994073;28;20459;-70
2023/07/26 02:44:02;;;;;;;10.90;3.50;;;12.70;99.90;;;;;;4998381;28;20577;-70
2023/07/26 02:46:29;;;;;;;8.70;3.97;;;12.60;99.90;;;;;;5001763;28;20478;-71
2023/07/26 02:48:57;;;;;;;8.43;3.90;;;12.60;99.90;;;;;;5006862;28;20451;-70
2023/07/26 02:51:23;;;;;;;3.80;3.40;;;12.50;99.90;;;;;;5002674;28;20463;-71
2023/07/26 02:53:50;;;;;;;11.90;4.10;;;12.50;99.90;;;;;;5003314;28;20450;-71
2023/07/26 02:56:17;;;;;;;9.20;4.27;;;12.50;99.90;;;;;;4996067;28;20471;-70
2023/07/26 02:58:43;;;;;;;5.67;4.37;;;12.50;99.90;;;;;;5001918;28;20959;-71
2023/07/26 03:01:10;;;;;;;7.80;4.43;;;12.40;99.90;;;;;;4994121;28;20598;-71
2023/07/26 03:03:37;;;;;;;5.33;4.50;;;12.40;99.90;;;;;;5008867;28;20546;-71
2023/07/26 03:06:05;;;;;;;8.20;4.30;;;12.30;99.90;;;;;;4998919;28;20989;-70
2023/07/26 03:08:31;;;;;;;8.17;5.00;;;12.30;99.90;;;;;;4992204;28;20459;-72
2023/07/26 03:10:58;;;;;;;5.40;4.47;;;12.30;99.90;;;;;;4993183;28;20462;-72
2023/07/26 03:13:25;;;;;;;5.90;4.10;;;12.30;99.90;;;;;;5005555;28;20462;-72
2023/07/26 03:15:52;;;;;;;8.00;4.30;;;12.30;99.90;;;;;;4985272;28;20875;-73
2023/07/26 03:18:19;;;;;;;4.50;4.10;;;12.30;99.90;;;;;;4980211;28;20943;-72
2023/07/26 03:20:46;;;;;;;4.50;4.10;;;12.30;99.90;;;;;;4991418;28;20459;-72
2023/07/26 03:23:14;;;;;;;7.50;4.13;;;12.30;99.90;;;;;;4996309;28;20915;-71
2023/07/26 03:25:42;;;;;;;6.67;4.60;;;12.40;99.90;;;;;;4985867;28;20937;-72
2023/07/26 03:28:09;;;;;;;7.63;4.60;;;12.40;99.90;;;;;;4996097;28;20942;-72
2023/07/26 03:30:35;;;;;;;6.17;4.60;;;12.40;99.90;;;;;;4989930;28;20541;-71
2023/07/26 03:33:02;;;;;;;5.53;4.50;;;12.50;99.90;;;;;;4993568;28;20868;-72
2023/07/26 03:35:29;;;;;;;5.73;4.27;;;12.50;99.90;;;;;;4996148;28;20468;-71
2023/07/26 03:37:55;;;;;;;5.47;4.97;;;12.50;99.90;;;;;;4996075;28;20515;-71
2023/07/26 03:40:23;;;;;;;4.60;3.90;;;12.50;99.90;;;;;;4993325;28;20878;-70
2023/07/26 03:42:50;;;;;;;10.23;5.27;;;12.50;99.90;;;;;;4992829;28;20451;-70
2023/07/26 03:45:16;;;;;;;7.20;5.23;;;12.50;99.90;;;;;;4991894;28;20495;-70
2023/07/26 03:47:43;;;;;;;7.53;4.80;;;12.60;99.90;;;;;;4993482;28;20943;-70
2023/07/26 03:50:10;;;;;;;7.97;4.30;;;12.60;99.90;;;;;;4983726;28;20545;-70
2023/07/26 03:52:37;;;;;;;4.80;4.30;;;12.50;99.90;;;;;;4995125;28;21019;-70
2023/07/26 03:55:04;;;;;;;4.70;4.30;;;12.50;99.90;;;;;;5002358;28;20529;-70
2023/07/26 03:57:32;;;;;;;13.03;4.07;;;12.50;99.90;;;;;;5003487;28;21008;-71
2023/07/26 03:59:59;;;;;;;7.93;4.13;;;12.50;99.90;;;;;;5005356;28;20454;-70
2023/07/26 04:02:25;;;;;;;8.33;5.47;;;12.50;99.90;;;;;;4984901;28;20944;-70
2023/07/26 04:04:52;;;;;;;4.57;4.17;;;12.60;99.90;;;;;;4998658;28;20502;-70
2023/07/26 04:07:19;;;;;;;9.70;4.60;;;12.60;99.90;;;;;;4999937;28;20426;-71
2023/07/26 04:09:46;;;;;;;5.97;4.40;;;12.70;99.90;;;;;;4997123;28;20455;-71
2023/07/26 04:12:13;;;;;;;7.37;3.80;;;12.70;99.90;;;;;;4990680;28;20484;-69
2023/07/26 04:14:40;;;;;;;9.90;4.70;;;12.70;99.90;;;;;;4990994;28;20465;-71
2023/07/26 04:17:07;;;;;;;7.10;4.20;;;12.80;99.90;;;;;;4988081;28;20527;-71
2023/07/26 04:19:34;;;;;;;9.37;5.10;;;12.80;99.90;;;;;;4996368;28;20467;-71
2023/07/26 04:22:01;;;;;;;5.23;4.80;;;12.80;99.90;;;;;;4991268;28;20459;-70
2023/07/26 04:24:27;;;;;;;9.47;4.77;;;12.80;99.90;;;;;;5000410;28;21070;-71
2023/07/26 04:26:54;;;;;;;6.70;5.10;;;12.90;99.90;;;;;;4993570;28;20620;-72
2023/07/26 04:29:21;;;;;;;9.40;4.67;;;12.90;99.90;;;;;;4985040;28;20567;-72
2023/07/26 04:31:49;;;;;;;5.70;4.57;;;12.90;99.90;;;;;;4988192;28;20458;-70
2023/07/26 04:34:16;;;;;;;7.70;4.80;;;12.90;99.90;;;;;;5010066;23;20515;-86
2023/07/26 04:36:42;;;;;;;5.10;4.70;;;12.90;99.90;;;;;;5013071;28;20463;-87
2023/07/26 04:39:09;;;;;;;10.67;5.30;;;12.90;99.90;;;;;;5015587;28;20470;-88
2023/07/26 04:41:36;;;;;;;7.40;4.87;;;12.80;99.90;;;;;;5015632;28;20461;-87
2023/07/26 04:44:02;;;;;;;7.90;5.40;;;12.90;99.90;;;;;;5016478;28;20458;-88
2023/07/26 04:46:29;;;;;;;9.33;5.60;;;12.90;99.90;;;;;;5012745;28;20493;-87
2023/07/26 04:48:57;;;;;;;7.30;5.07;;;12.90;99.90;;;;;;5015854;28;20473;-88
2023/07/26 04:51:24;;;;;;;10.17;5.40;;;12.90;99.90;;;;;;5015831;28;20505;-88
2023/07/26 04:53:51;;;;;;;6.63;4.87;;;12.90;99.90;;;;;;5017285;28;20540;-89
2023/07/26 04:56:17;;;;;;;9.80;5.90;;;12.90;99.90;;;;;;5024534;28;20477;-89
2023/07/26 04:58:44;;;;;;;6.90;6.10;;;12.90;99.90;;;;;;5022783;28;20984;-88
2023/07/26 05:01:11;;;;;;;8.60;5.77;;;12.80;99.90;;;;;;5016243;28;20513;-87
2023/07/26 05:03:38;;;;;;;12.70;6.03;;;12.90;99.90;;;;;;5016034;28;20446;-89
2023/07/26 05:06:06;;;;;;;9.07;5.47;;;12.80;99.90;;;;;;5015692;28;20531;-88
2023/07/26 05:08:33;;;;;;;7.90;5.73;;;12.80;99.90;;;;;;5015803;28;20470;-88
2023/07/26 05:11:00;;;;;;;7.10;6.40;;;12.70;99.90;;;;;;5015550;28;20463;-88
2023/07/26 05:13:27;;;;;;;13.43;7.10;;;12.70;99.90;;;;;;5029533;28;20431;-89
2023/07/26 05:15:54;;;;;;;8.23;6.17;;;12.70;99.90;;;;;;5039736;28;20501;-90
2023/07/26 05:18:20;;;;;;;12.93;6.87;;;12.80;99.90;;;;;;5029131;28;20506;-88
2023/07/26 05:20:50;;;;;;;9.20;6.30;;;12.80;99.90;;;;;;5014913;28;20524;-88
2023/07/26 05:23:18;;;;;;;7.47;6.20;;;12.80;99.90;;;;;;5015080;28;20966;-88
2023/07/26 05:25:45;;;;;;;8.80;6.40;;;12.90;99.90;;;;;;5015027;28;21074;-88
2023/07/26 05:28:12;;;;;;;7.70;6.10;;;12.90;99.90;;;;;;5015846;28;20872;-88
2023/07/26 05:30:39;;;;;;;7.87;6.00;;;12.90;99.90;;;;;;5015790;28;20417;-88
2023/07/26 05:33:06;;;;;;;10.27;5.67;;;12.80;99.90;;;;;;5015255;28;20542;-88
2023/07/26 05:35:32;;;;;;;11.00;5.80;;;12.90;99.90;;;;;;5015022;28;20714;-89
2023/07/26 05:37:59;;;;;;;6.70;5.63;;;12.90;99.90;;;;;;5015010;28;20477;-88
2023/07/26 05:40:27;;;;;;;8.20;6.87;;;12.90;99.90;;;;;;5017430;28;20454;-88
2023/07/26 05:42:54;;;;;;;9.57;5.83;;;13.00;99.90;;;;;;5015536;28;20470;-88
2023/07/26 05:45:21;;;;;;;6.80;5.80;;;13.00;99.90;;;;;;5015116;28;20569;-88
2023/07/26 05:47:47;;;;;;;9.67;6.43;;;13.00;99.90;;;;;;5013643;28;20471;-88
2023/07/26 05:50:14;;;;;;;9.13;6.50;;;13.00;99.90;;;;;;5015137;28;20497;-88
2023/07/26 05:52:41;;;;;;;9.70;6.50;;;13.00;99.90;;;;;;5015194;28;20454;-89
2023/07/26 05:55:08;;;;;;;12.47;5.90;;;13.00;99.90;;;;;;5015265;28;20753;-89
2023/07/26 05:57:37;;;;;;;9.90;5.50;;;13.00;99.90;;;;;;5014900;28;20470;-88
2023/07/26 06:00:05;;;;;;;7.57;5.63;;;12.90;99.90;;;;;;5006969;28;20425;-88
2023/07/26 06:02:31;;;;;;;11.73;6.47;;;12.90;99.90;;;;;;5014569;28;20553;-88
2023/07/26 06:04:58;;;;;;;14.27;5.47;;;12.90;99.90;;;;;;5014564;28;20514;-87
2023/07/26 06:07:25;;;;;;;10.33;5.40;;;13.00;99.90;;;;;;5015000;28;20509;-88
2023/07/26 06:09:51;;;;;;;6.87;5.93;;;13.00;99.90;;;;;;5016190;28;20433;-88
2023/07/26 06:12:18;;;;;;;8.60;6.37;;;13.00;99.90;;;;;;5017126;28;20520;-89
2023/07/26 06:14:46;;;;;;;8.00;6.17;;;13.10;99.90;;;;;;5015575;28;20485;-88
2023/07/26 06:17:13;;;;;;;7.30;6.10;;;13.20;99.90;;;;;;5015694;28;20417;-88
2023/07/26 06:19:39;;;;;;;12.23;5.97;;;13.20;99.90;;;;;;5016318;28;20928;-88
2023/07/26 06:22:06;;;;;;;15.80;5.93;;;13.30;99.90;;;;;;5015711;28;20450;-89
2023/07/26 06:24:33;;;;;;;13.83;6.17;;;13.30;99.90;;;;;;5015706;28;20462;-89
2023/07/26 06:27:04;;;;;;;10.00;6.07;;;13.40;99.90;;;;;;5016839;28;20493;-88
2023/07/26 06:29:31;;;;;;;13.53;6.00;;;13.40;99.90;;;;;;5015873;28;20532;-88
2023/07/26 06:31:59;;;;;;;12.43;6.10;;;13.40;99.90;;;;;;5015934;28;20458;-90
2023/07/26 06:34:26;;;;;;;7.20;6.23;;;13.30;99.90;;;;;;5015878;28;20454;-90
2023/07/26 06:36:52;;;;;;;9.93;6.43;;;13.20;99.90;;;;;;5014768;28;20546;-88
2023/07/26 06:39:19;;;;;;;7.40;5.80;;;13.30;99.90;;;;;;5014178;28;20509;-88
2023/07/26 06:41:46;;;;;;;15.93;6.20;;;13.40;99.90;;;;;;5013770;28;20512;-88
2023/07/26 06:44:13;;;;;;;7.10;5.50;;;13.30;99.90;;;;;;5014304;28;20450;-89
2023/07/26 06:46:40;;;;;;;7.27;6.37;;;13.30;99.90;;;;;;5013848;28;20493;-89
2023/07/26 06:49:08;;;;;;;7.53;5.63;;;13.30;99.90;;;;;;5013656;28;20601;-89
2023/07/26 06:51:34;;;;;;;6.23;5.40;;;13.40;99.90;;;;;;5013616;28;20460;-88
2023/07/26 06:54:01;;;;;;;6.10;5.20;;;13.60;99.90;;;;;;5014183;28;20987;-88
2023/07/26 06:56:28;;;;;;;6.70;5.50;;;13.50;99.90;;;;;;5013926;28;20882;-89
2023/07/26 06:58:54;;;;;;;8.20;5.93;;;13.60;99.90;;;;;;5013217;28;20976;-88
2023/07/26 07:01:21;;;;;;;10.57;5.57;;;13.70;99.90;;;;;;5014503;28;20875;-89
2023/07/26 07:03:48;;;;;;;6.23;5.03;;;13.80;99.90;;;;;;5013841;28;20945;-88
2023/07/26 07:06:16;;;;;;;6.73;5.50;;;13.90;99.90;;;;;;5013674;28;21007;-88
2023/07/26 07:08:43;;;;;;;5.10;4.63;;;13.90;99.90;;;;;;5014443;28;20524;-89
2023/07/26 07:11:10;;;;;;;6.70;5.10;;;13.80;99.90;;;;;;5014006;28;20520;-89
2023/07/26 07:13:37;;;;;;;8.63;4.20;;;13.80;99.90;;;;;;5015549;28;20458;-89
2023/07/26 07:16:04;;;;;;;6.40;4.17;;;13.80;99.90;;;;;;5015922;28;20548;-89
2023/07/26 07:18:31;;;;;;;4.37;3.97;;;13.80;99.90;;;;;;5016411;28;20527;-89
2023/07/26 07:21:00;;;;;;;6.60;4.10;;;13.80;99.90;;;;;;5025659;28;20438;-89
2023/07/26 07:23:29;;;;;;;6.23;4.03;;;13.80;99.90;;;;;;5018298;28;20831;-89
2023/07/26 07:25:56;;;;;;;4.57;4.27;;;13.90;99.90;;;;;;5015859;28;20581;-88
2023/07/26 07:28:23;;;;;;;6.63;3.90;;;13.80;99.90;;;;;;5015336;28;20473;-89
2023/07/26 07:30:49;;;;;;;9.60;4.37;;;13.80;99.90;;;;;;5015634;28;20458;-89
2023/07/26 07:33:16;;;;;;;5.87;4.20;;;13.90;99.90;;;;;;5014231;28;20473;-89
2023/07/26 07:35:43;;;;;;;4.57;3.80;;;13.90;99.90;;;;;;5014281;28;20454;-89
2023/07/26 07:38:10;;;;;;;4.07;3.87;;;14.00;99.90;;;;;;5013510;28;20529;-88
2023/07/26 07:40:38;;;;;;;4.03;3.63;;;14.00;99.90;;;;;;5013610;28;20936;-89
2023/07/26 07:43:05;;;;;;;3.70;3.40;;;14.20;99.90;;;;;;5014658;28;20501;-88
2023/07/26 07:45:32;;;;;;;4.53;3.70;;;14.30;99.90;;;;;;5014051;28;20481;-89
2023/07/26 07:47:58;;;;;;;3.30;3.10;;;14.50;99.90;;;;;;5013877;28;20466;-88
2023/07/26 07:50:25;;;;;;;3.83;3.53;;;14.60;99.90;;;;;;5013533;28;20433;-89
2023/07/26 07:52:52;;;;;;;4.00;3.10;;;14.80;99.90;;;;;;5013757;28;20458;-89
2023/07/26 07:55:18;;;;;;;6.00;2.93;;;14.80;99.90;;;;;;5013625;28;20504;-89
2023/07/26 07:57:46;;;;;;;4.07;3.13;;;14.90;99.90;;;;;;5014230;28;20474;-89
2023/07/26 08:00:14;;;;;;;4.60;2.53;;;15.00;99.90;;;;;;5013301;28;20454;-89
2023/07/26 08:02:40;;;;;;;4.57;2.90;;;15.20;99.90;;;;;;5013636;28;20731;-90
2023/07/26 08:05:08;;;;;;;5.50;3.00;;;15.40;99.90;;;;;;5014946;28;21089;-89
2023/07/26 08:07:35;;;;;;;3.30;3.00;;;15.60;99.90;;;;;;5014075;28;21033;-89
2023/07/26 08:10:02;;;;;;;7.47;3.13;;;15.90;99.90;;;;;;5013045;28;20955;-89
2023/07/26 08:12:28;;;;;;;3.10;2.80;;;16.10;99.90;;;;;;5013102;28;20519;-89
2023/07/26 08:14:56;;;;;;;4.37;3.30;;;16.30;99.90;;;;;;5013725;28;20429;-90
2023/07/26 08:17:23;;;;;;;4.90;3.13;;;16.40;99.90;;;;;;5014417;28;20421;-89
2023/07/26 08:19:49;;;;;;;4.23;2.73;;;16.50;99.90;;;;;;5017050;28;20508;-90
2023/07/26 08:22:16;;;;;;;2.60;2.40;;;16.60;99.90;;;;;;5037109;28;20443;-90
2023/07/26 08:24:43;;;;;;;3.77;2.37;;;16.70;99.90;;;;;;5036379;28;20442;-89
2023/07/26 08:27:09;;;;;;;3.07;2.73;;;16.70;99.90;;;;;;5013011;28;20472;-88
2023/07/26 08:29:36;;;;;;;6.70;2.60;;;17.00;99.90;;;;;;5012687;28;20505;-89
2023/07/26 08:32:05;;;;;;;5.53;2.30;;;17.20;99.90;;;;;;5013444;28;20827;-90
2023/07/26 08:34:32;;;;;;;4.50;2.37;;;17.70;99.90;;;;;;5013460;28;20757;-89
2023/07/26 08:36:58;;;;;;;4.17;2.53;;;17.90;99.90;;;;;;5013578;28;20449;-89
2023/07/26 08:39:25;;;;;;;3.60;2.20;;;18.00;99.90;;;;;;5012856;28;20497;-86
2023/07/26 08:41:52;;;;;;;2.53;2.33;;;18.10;99.90;;;;;;5012675;28;20432;-88
2023/07/26 08:44:19;;;;;;;2.97;2.43;;;18.30;99.90;;;;;;5013300;28;20440;-88
2023/07/26 08:46:47;;;;;;;3.00;2.77;;;18.30;99.90;;;;;;5013173;28;20490;-89
2023/07/26 08:49:16;;;;;;;5.80;2.83;;;18.30;99.90;;;;;;5012595;28;20448;-89
2023/07/26 08:51:43;;;;;;;3.40;3.10;;;18.50;99.90;;;;;;5013104;28;20458;-89
2023/07/26 08:54:10;;;;;;;3.20;2.90;;;18.40;99.90;;;;;;5013872;28;20458;-89
2023/07/26 08:56:37;;;;;;;5.47;2.77;;;18.90;99.90;;;;;;5014263;28;20429;-89
2023/07/26 08:59:04;;;;;;;5.67;3.10;;;19.20;99.90;;;;;;5014510;28;20453;-89
2023/07/26 09:01:31;;;;;;;3.17;2.73;;;19.70;99.90;;;;;;5013862;28;20520;-89
2023/07/26 09:03:58;;;;;;;7.33;3.37;;;19.70;99.90;;;;;;5013251;28;20449;-89
2023/07/26 09:06:26;;;;;;;2.80;2.60;;;19.40;99.90;;;;;;5013035;28;20482;-88
2023/07/26 09:08:53;;;;;;;2.87;2.60;;;19.30;99.90;;;;;;5012675;28;21055;-88
2023/07/26 09:11:24;;;;;;;3.30;3.00;;;19.40;99.90;;;;;;5013735;28;20520;-89
2023/07/26 09:13:55;;;;;;;5.10;3.00;;;19.60;99.90;;;;;;5013718;28;20500;-89
2023/07/26 09:16:22;;;;;;;3.37;2.57;;;19.60;99.90;;;;;;5013655;28;20512;-89
2023/07/26 09:18:56;;;;;;;3.27;2.60;;;19.50;99.90;;;;;;5013522;28;20478;-89
2023/07/26 09:21:27;;;;;;;6.03;2.73;;;19.60;99.90;;;;;;5012646;28;20446;-89
2023/07/26 09:23:54;;;;;;;6.53;2.70;;;19.60;99.90;;;;;;5015895;28;20429;-89
2023/07/26 09:26:35;;;;;;;4.37;2.60;;;19.50;99.90;;;;;;5016198;28;20509;-89
2023/07/26 09:29:02;;;;;;;3.37;2.43;;;19.60;99.90;;;;;;5015366;28;20513;-88
2023/07/26 09:31:33;;;;;;;5.83;2.20;;;20.00;99.90;;;;;;5015642;28;20480;-89
2023/07/26 09:34:04;;;;;;;4.90;2.70;;;20.40;99.90;;;;;;5016847;28;20457;-89
2023/07/26 09:36:42;;;;;;;3.20;2.50;;;20.50;99.90;;;;;;5017461;28;21020;-89
2023/07/26 09:39:09;;;;;;;3.00;2.30;;;20.60;99.90;;;;;;5016732;28;20481;-86
2023/07/26 09:41:36;;;;;;;2.47;2.23;;;20.90;99.90;;;;;;5018650;28;20853;-89
2023/07/26 09:44:03;;;;;;;5.23;2.67;;;21.00;99.90;;;;;;5018600;28;20513;-87
2023/07/26 09:46:29;;;;;;;4.57;2.53;;;21.20;99.90;;;;;;5018753;28;20540;-89
2023/07/26 09:49:02;;;;;;;8.97;2.50;;;21.30;99.90;;;;;;5017206;28;20489;-88
2023/07/26 09:51:31;;;;;;;2.30;2.10;;;21.10;99.90;;;;;;5017823;28;20443;-89
2023/07/26 09:54:00;;;;;;;4.20;2.47;;;21.00;99.90;;;;;;5016177;28;20461;-89
2023/07/26 09:56:32;;;;;;;7.00;2.70;;;21.40;99.90;;;;;;5016847;28;20442;-89
2023/07/26 09:59:00;;;;;;;3.70;2.10;;;21.60;99.90;;;;;;5016308;28;20470;-89
2023/07/26 10:01:30;;;;;;;2.70;2.50;;;21.90;99.90;;;;;;5016189;28;20843;-89
2023/07/26 10:04:00;;;;;;;4.60;2.47;;;21.70;99.90;;;;;;5015089;28;20477;-89
2023/07/26 10:06:30;;;;;;;4.27;2.70;;;21.30;99.90;;;;;;5015223;28;20478;-88
2023/07/26 10:08:57;;;;;;;3.13;2.60;;;20.90;99.90;;;;;;5015766;28;20489;-88
2023/07/26 10:11:28;;;;;;;4.57;2.47;;;20.80;99.90;;;;;;5015427;28;20470;-89
2023/07/26 10:13:58;;;;;;;5.00;2.63;;;20.80;99.90;;;;;;5016410;28;20439;-88
2023/07/26 10:16:26;;;;;;;5.60;2.73;;;20.80;99.90;;;;;;5010045;28;20500;-89
2023/07/26 10:18:54;;;;;;;5.90;2.83;;;20.90;99.90;;;;;;5016882;28;20509;-89
2023/07/26 10:21:22;;;;;;;4.53;2.73;;;21.30;99.90;;;;;;5015817;28;20876;-89
2023/07/26 10:23:50;;;;;;;3.27;2.93;;;21.50;99.90;;;;;;5015936;28;20509;-87
2023/07/26 10:26:17;;;;;;;4.83;2.40;;;21.50;99.90;;;;;;5015303;28;20986;-89
2023/07/26 10:28:46;;;;;;;2.37;2.17;;;21.30;99.90;;;;;;5015576;28;20462;-89
2023/07/26 10:31:13;;;;;;;3.40;2.40;;;21.60;99.90;;;;;;5014771;28;20512;-89
2023/07/26 10:33:48;;;;;;;3.53;2.60;;;22.00;99.90;;;;;;5014141;28;20553;-88
2023/07/26 10:36:16;;;;;;;4.17;2.23;;;22.00;99.90;;;;;;5016293;28;20826;-88
2023/07/26 10:38:47;;;;;;;4.13;2.50;;;21.90;99.90;;;;;;5016612;28;20496;-89
2023/07/26 10:41:25;;;;;;;3.90;2.60;;;21.50;99.90;;;;;;5015112;28;20834;-89
2023/07/26 10:44:04;;;;;;;4.07;2.30;;;20.90;99.90;;;;;;5016084;28;21012;-88
2023/07/26 10:46:46;;;;;;;4.40;2.37;;;20.40;99.90;;;;;;5015174;28;20481;-88
2023/07/26 10:49:18;;;;;;;2.87;2.67;;;20.30;99.90;;;;;;5014677;28;20865;-88
2023/07/26 10:51:51;;;;;;;2.73;2.53;;;20.30;99.90;;;;;;5014123;28;20489;-88
2023/07/26 10:54:33;;;;;;;3.80;2.77;;;20.20;99.90;;;;;;5014638;28;20545;-89
2023/07/26 10:57:21;;;;;;;4.17;3.10;;;20.30;99.90;;;;;;5014381;28;20504;-89
2023/07/26 10:59:56;;;;;;;3.60;3.03;;;20.10;99.90;;;;;;5013576;28;20465;-88
2023/07/26 11:02:43;;;;;;;2.70;2.50;;;20.00;99.90;;;;;;5013768;28;20481;-88
2023/07/26 11:05:15;;;;;;;3.87;2.77;;;20.00;99.90;;;;;;5013669;28;20454;-89
2023/07/26 11:07:52;;;;;;;4.33;2.43;;;20.30;99.90;;;;;;5013668;28;20573;-88
2023/07/26 11:10:21;;;;;;;3.73;2.60;;;20.30;99.90;;;;;;5014514;28;20500;-88
2023/07/26 11:12:50;;;;;;;4.00;2.10;;;20.40;99.90;;;;;;5016232;28;20454;-89
2023/07/26 11:15:28;;;;;;;4.10;2.80;;;20.50;99.90;;;;;;5014394;28;20470;-88
2023/07/26 11:17:55;;;;;;;3.70;2.50;;;20.60;99.90;;;;;;5014886;28;20557;-88
2023/07/26 11:20:22;;;;;;;3.77;2.57;;;20.50;99.90;;;;;;5014202;28;20458;-88
2023/07/26 11:22:48;;;;;;;3.10;2.80;;;20.20;99.90;;;;;;5015616;28;20458;-88
2023/07/26 11:25:15;;;;;;;3.50;2.70;;;19.90;99.90;;;;;;5015318;28;20525;-89
2023/07/26 11:27:42;;;;;;;7.47;3.30;;;19.30;99.90;;;;;;5034053;28;20478;-90
2023/07/26 11:30:14;;;;;;;4.23;3.00;;;19.00;99.90;;;;;;5037548;28;20430;-89
2023/07/26 11:32:45;;;;;;;3.97;2.87;;;18.70;99.90;;;;;;5020010;28;20886;-89
2023/07/26 11:35:12;;;;;;;5.03;3.00;;;18.00;99.90;;;;;;5016820;28;20469;-88
2023/07/26 11:37:39;;;;;;;9.63;2.90;;;17.30;99.90;;;;;;5014274;28;20474;-88
2023/07/26 11:40:09;;;;;;;2.40;2.20;;;16.40;99.90;;;;;;5013314;28;20451;-88
2023/07/26 11:42:35;;;;;;;2.40;2.30;;;16.10;99.90;;;;;;5014116;28;20450;-87
2023/07/26 11:45:03;;;;;;;2.37;2.10;;;15.70;99.90;;;;;;5013733;28;20445;-88
2023/07/26 11:47:34;;;;;;;5.03;2.30;;;15.60;99.90;;;;;;5013530;28;20936;-88
2023/07/26 11:50:03;;;;;;;2.23;2.13;;;15.50;99.90;;;;;;5013630;28;20447;-88
2023/07/26 11:52:29;;;;;;;2.20;2.00;;;15.50;99.90;;;;;;5014252;28;20517;-88
2023/07/26 11:54:57;;;;;;;2.17;2.00;;;15.60;99.90;;;;;;5014119;28;20851;-90
2023/07/26 11:57:25;;;;;;;3.13;2.20;;;15.70;99.90;;;;;;5013575;28;20869;-90
2023/07/26 11:59:53;;;;;;;2.53;2.33;;;15.80;99.90;;;;;;5014252;28;20433;-89
2023/07/26 12:02:20;;;;;;;2.40;2.30;;;16.30;99.90;;;;;;5012833;28;20462;-90
2023/07/26 12:05:19;;;;;;;1.97;1.87;;;17.00;99.90;;;;;;5013610;28;20841;-90
2023/07/26 12:07:49;;;;;;;1.90;1.80;;;17.80;99.90;;;;;;5014915;28;20489;-90
2023/07/26 12:10:17;;;;;;;2.00;1.80;;;18.60;99.90;;;;;;5015426;28;20492;-90
2023/07/26 12:12:45;;;;;;;2.20;2.00;;;19.20;99.90;;;;;;5013857;28;20442;-90
2023/07/26 12:15:12;;;;;;;2.90;2.00;;;19.60;99.90;;;;;;5012952;28;20943;-90
2023/07/26 12:17:54;;;;;;;2.27;2.00;;;20.10;99.90;;;;;;5014307;28;20489;-90
2023/07/26 12:20:21;;;;;;;2.03;1.93;;;20.50;99.90;;;;;;5015768;28;20453;-91
2023/07/26 12:22:54;;;;;;;1.80;1.70;;;21.10;99.90;;;;;;5013883;28;20856;-90
2023/07/26 12:25:21;;;;;;;2.20;2.00;;;21.70;99.90;;;;;;5014024;28;20441;-89
2023/07/26 12:27:49;;;;;;;1.97;1.70;;;22.10;99.90;;;;;;5013355;28;20490;-90
2023/07/26 12:30:18;;;;;;;1.67;1.57;;;22.40;99.90;;;;;;5014070;28;20450;-90
2023/07/26 12:32:45;;;;;;;1.93;1.83;;;22.40;99.90;;;;;;5015866;28;20465;-90
2023/07/26 12:35:20;;;;;;;2.33;1.70;;;22.50;99.90;;;;;;5016844;28;20807;-90
2023/07/26 12:37:49;;;;;;;2.93;2.00;;;22.60;99.90;;;;;;5015866;28;20477;-90
2023/07/26 12:40:18;;;;;;;4.03;1.80;;;22.50;99.90;;;;;;5014752;28;20869;-90
2023/07/26 12:42:45;;;;;;;2.20;1.97;;;22.80;99.90;;;;;;5015223;28;20462;-90
2023/07/26 12:45:13;;;;;;;2.23;1.93;;;23.30;99.90;;;;;;5014988;28;20465;-90
2023/07/26 12:47:40;;;;;;;2.27;2.07;;;23.60;99.90;;;;;;5014317;28;20482;-91
2023/07/26 12:50:08;;;;;;;2.67;1.90;;;23.90;99.90;;;;;;5014726;28;20446;-90